createdAt,value
2023-03-24T00:01:01.044Z,15.70
2023-03-24T00:03:29.705Z,15.70
2023-03-24T00:06:02.363Z,15.70
2023-03-24T00:08:36.534Z,15.60
2023-03-24T00:11:07.073Z,15.70
2023-03-24T00:13:38.320Z,15.70
2023-03-24T00:16:11.740Z,15.70
2023-03-24T00:18:39.661Z,15.70
2023-03-24T00:21:08.896Z,15.70
2023-03-24T00:23:36.207Z,15.70
2023-03-24T00:26:12.284Z,15.60
2023-03-24T00:28:39.612Z,15.60
2023-03-24T00:31:08.785Z,15.70
2023-03-24T00:33:36.899Z,15.60
2023-03-24T00:36:06.880Z,15.60
2023-03-24T00:38:36.489Z,15.60
2023-03-24T00:41:06.134Z,15.70
2023-03-24T00:43:34.168Z,15.70
2023-03-24T00:46:05.943Z,15.70
2023-03-24T00:48:38.286Z,15.60
2023-03-24T00:51:08.013Z,15.70
2023-03-24T00:53:35.327Z,15.70
2023-03-24T00:56:02.759Z,15.70
2023-03-24T00:58:34.384Z,15.70
2023-03-24T01:01:01.979Z,15.70
2023-03-24T01:03:29.452Z,15.70
2023-03-24T01:06:03.156Z,15.70
2023-03-24T01:08:31.824Z,15.70
2023-03-24T01:11:01.105Z,15.70
2023-03-24T01:13:29.854Z,15.70
2023-03-24T01:15:57.604Z,15.70
2023-03-24T01:18:25.173Z,15.70
2023-03-24T01:20:53.990Z,15.70
2023-03-24T01:23:24.197Z,15.70
2023-03-24T01:25:52.965Z,15.60
2023-03-24T01:28:27.207Z,15.60
2023-03-24T01:30:54.763Z,15.60
2023-03-24T01:33:22.323Z,15.60
2023-03-24T01:35:49.965Z,15.60
2023-03-24T01:38:17.437Z,15.70
2023-03-24T01:40:46.791Z,15.60
2023-03-24T01:43:23.587Z,15.60
2023-03-24T01:46:14.863Z,15.60
2023-03-24T01:48:59.896Z,15.60
2023-03-24T01:51:35.468Z,15.60
2023-03-24T01:54:13.900Z,15.60
2023-03-24T01:56:45.872Z,15.60
2023-03-24T01:59:17.992Z,15.60
2023-03-24T02:02:03.354Z,15.60
2023-03-24T02:04:42.514Z,15.60
2023-03-24T02:07:20.693Z,15.60
2023-03-24T02:09:48.517Z,15.60
2023-03-24T02:12:16.370Z,15.60
2023-03-24T02:14:44.436Z,15.60
2023-03-24T02:17:30.243Z,15.60
2023-03-24T02:20:11.069Z,15.60
2023-03-24T02:23:15.306Z,15.60
2023-03-24T02:26:20.606Z,15.60
2023-03-24T02:29:06.095Z,15.60
2023-03-24T02:32:13.992Z,15.60
2023-03-24T02:35:00.386Z,15.60
2023-03-24T02:37:45.842Z,15.60
2023-03-24T02:40:27.601Z,15.60
2023-03-24T02:43:14.847Z,15.60
2023-03-24T02:46:13.541Z,15.60
2023-03-24T02:49:01.534Z,15.60
2023-03-24T02:51:42.726Z,15.60
2023-03-24T02:54:14.505Z,15.60
2023-03-24T02:57:00.050Z,15.60
2023-03-24T03:00:27.134Z,15.60
2023-03-24T03:03:38.330Z,15.60
2023-03-24T03:06:15.155Z,15.60
2023-03-24T03:08:47.477Z,15.60
2023-03-24T03:11:16.921Z,15.70
2023-03-24T03:13:56.629Z,15.70
2023-03-24T03:16:34.581Z,15.70
2023-03-24T03:19:09.875Z,15.70
2023-03-24T03:21:41.731Z,15.70
2023-03-24T03:24:19.932Z,15.70
2023-03-24T03:26:49.856Z,15.70
2023-03-24T03:29:22.816Z,15.70
2023-03-24T03:31:59.021Z,15.70
2023-03-24T03:34:45.607Z,15.70
2023-03-24T03:37:41.384Z,15.70
2023-03-24T03:40:14.822Z,15.70
2023-03-24T03:42:47.314Z,15.80
2023-03-24T03:45:15.046Z,15.70
2023-03-24T03:47:42.722Z,15.70
2023-03-24T03:50:11.012Z,15.70
2023-03-24T03:52:39.687Z,15.80
2023-03-24T03:55:08.892Z,15.80
2023-03-24T03:57:36.731Z,15.80
2023-03-24T04:00:23.577Z,15.80
2023-03-24T04:03:53.759Z,15.80
2023-03-24T04:06:44.282Z,15.80
2023-03-24T04:09:27.392Z,15.80
2023-03-24T04:12:41.880Z,15.80
2023-03-24T04:15:41.665Z,15.80
2023-03-24T04:18:39.485Z,15.80
2023-03-24T04:21:13.024Z,15.80
2023-03-24T04:23:46.441Z,15.80
2023-03-24T04:26:16.451Z,15.80
2023-03-24T04:29:19.389Z,15.80
2023-03-24T04:32:03.195Z,15.80
2023-03-24T04:34:42.183Z,15.80
2023-03-24T04:37:37.786Z,15.80
2023-03-24T04:40:14.880Z,15.80
2023-03-24T04:42:46.808Z,15.80
2023-03-24T04:45:17.009Z,15.80
2023-03-24T04:47:50.946Z,15.80
2023-03-24T04:50:36.994Z,15.80
2023-03-24T04:53:09.374Z,15.80
2023-03-24T04:55:49.924Z,15.80
2023-03-24T04:58:24.738Z,15.70
2023-03-24T05:00:52.859Z,15.70
2023-03-24T05:03:20.196Z,15.60
2023-03-24T05:05:49.510Z,15.60
2023-03-24T05:08:17.943Z,15.50
2023-03-24T05:10:45.918Z,15.40
2023-03-24T05:13:13.859Z,15.40
2023-03-24T05:15:46.869Z,15.30
2023-03-24T05:18:28.794Z,15.30
2023-03-24T05:20:57.421Z,15.20
2023-03-24T05:23:26.064Z,15.20
2023-03-24T05:25:55.188Z,15.20
2023-03-24T05:28:24.327Z,15.10
2023-03-24T05:30:53.822Z,15.00
2023-03-24T05:33:37.797Z,15.00
2023-03-24T05:36:05.434Z,15.00
2023-03-24T05:38:33.181Z,15.00
2023-03-24T05:41:01.402Z,14.90
2023-03-24T05:43:34.797Z,14.90
2023-03-24T05:46:10.756Z,14.80
2023-03-24T05:48:38.044Z,14.80
2023-03-24T05:51:13.254Z,14.70
2023-03-24T05:53:40.902Z,14.60
2023-03-24T05:56:11.832Z,14.60
2023-03-24T05:58:58.360Z,14.60
2023-03-24T06:01:36.288Z,14.50
2023-03-24T06:04:18.617Z,14.50
2023-03-24T06:06:46.150Z,14.40
2023-03-24T06:09:18.176Z,14.40
2023-03-24T06:11:45.686Z,14.40
2023-03-24T06:14:13.685Z,14.40
2023-03-24T06:16:52.754Z,14.30
2023-03-24T06:19:22.575Z,14.30
2023-03-24T06:22:03.179Z,14.20
2023-03-24T06:24:34.739Z,14.20
2023-03-24T06:27:10.580Z,14.10
2023-03-24T06:29:38.448Z,14.10
2023-03-24T06:32:06.128Z,14.10
2023-03-24T06:34:40.448Z,14.00
2023-03-24T06:37:23.561Z,14.00
2023-03-24T06:39:52.111Z,14.00
2023-03-24T06:42:22.960Z,13.90
2023-03-24T06:44:51.661Z,13.90
2023-03-24T06:47:19.115Z,13.90
2023-03-24T06:49:46.727Z,13.90
2023-03-24T06:52:14.139Z,13.90
2023-03-24T06:54:42.270Z,13.80
2023-03-24T06:57:10.038Z,13.80
2023-03-24T06:59:56.060Z,13.80
2023-03-24T07:02:25.125Z,13.70
2023-03-24T07:04:54.093Z,13.70
2023-03-24T07:10:22.241Z,13.70
2023-03-24T07:12:50.451Z,13.60
2023-03-24T07:15:17.894Z,13.60
2023-03-24T07:17:45.803Z,13.60
2023-03-24T07:20:30.030Z,13.60
2023-03-24T07:23:17.497Z,13.60
2023-03-24T07:26:11.200Z,13.60
2023-03-24T07:28:41.602Z,13.60
2023-03-24T07:31:10.961Z,13.60
2023-03-24T07:33:39.264Z,13.60
2023-03-24T07:36:07.634Z,13.60
2023-03-24T07:38:37.226Z,13.70
2023-03-24T07:41:09.098Z,13.70
2023-03-24T07:43:41.228Z,13.70
2023-03-24T07:46:09.341Z,13.70
2023-03-24T07:48:38.356Z,13.70
2023-03-24T07:51:06.404Z,13.70
2023-03-24T07:53:52.412Z,13.70
2023-03-24T07:56:30.286Z,13.70
2023-03-24T07:58:59.518Z,13.70
2023-03-24T08:02:05.761Z,13.70
2023-03-24T08:04:44.827Z,13.70
2023-03-24T08:07:30.672Z,13.80
2023-03-24T08:09:58.010Z,13.80
2023-03-24T08:12:25.421Z,13.80
2023-03-24T08:14:53.447Z,13.80
2023-03-24T08:17:20.989Z,13.80
2023-03-24T08:19:58.867Z,13.80
2023-03-24T08:22:28.163Z,13.80
2023-03-24T08:24:55.446Z,13.80
2023-03-24T08:27:22.709Z,13.80
2023-03-24T08:29:49.977Z,13.80
2023-03-24T08:32:17.244Z,13.80
2023-03-24T08:34:44.572Z,13.90
2023-03-24T08:37:12.184Z,13.90
2023-03-24T08:39:39.471Z,13.90
2023-03-24T08:42:06.735Z,14.00
2023-03-24T08:44:34.082Z,14.00
2023-03-24T08:47:01.886Z,14.00
2023-03-24T08:49:29.723Z,14.00
2023-03-24T08:51:56.970Z,14.00
2023-03-24T08:54:24.736Z,14.10
2023-03-24T08:56:52.225Z,14.10
2023-03-24T08:59:19.499Z,14.20
2023-03-24T09:01:46.881Z,14.20
2023-03-24T09:04:14.701Z,14.20
2023-03-24T09:06:42.596Z,14.30
2023-03-24T09:09:09.788Z,14.30
2023-03-24T09:11:38.669Z,14.30
2023-03-24T09:14:06.096Z,14.30
2023-03-24T09:16:34.517Z,14.30
2023-03-24T09:19:01.977Z,14.30
2023-03-24T09:21:29.379Z,14.30
2023-03-24T09:23:56.685Z,14.20
2023-03-24T09:26:23.962Z,14.30
2023-03-24T09:28:51.196Z,14.30
2023-03-24T09:31:18.431Z,14.40
2023-03-24T09:33:45.916Z,14.40
2023-03-24T09:36:13.292Z,14.40
2023-03-24T09:38:41.059Z,14.50
2023-03-24T09:41:24.562Z,14.50
2023-03-24T09:44:07.407Z,14.50
2023-03-24T09:46:44.912Z,14.60
2023-03-24T09:49:16.648Z,14.60
2023-03-24T09:51:45.511Z,14.60
2023-03-24T09:54:35.835Z,14.60
2023-03-24T09:57:03.962Z,14.70
2023-03-24T09:59:41.294Z,14.70
2023-03-24T10:02:15.419Z,14.70
2023-03-24T10:04:43.016Z,14.70
2023-03-24T10:07:29.623Z,14.80
2023-03-24T10:09:59.444Z,14.80
2023-03-24T10:12:37.310Z,14.80
2023-03-24T10:15:34.594Z,14.80
2023-03-24T10:18:34.190Z,14.80
2023-03-24T10:21:26.162Z,14.90
2023-03-24T10:24:14.528Z,14.90
2023-03-24T10:27:00.989Z,14.90
2023-03-24T10:29:32.306Z,14.90
2023-03-24T10:32:14.497Z,15.00
2023-03-24T10:34:45.016Z,15.00
2023-03-24T10:37:15.464Z,15.00
2023-03-24T10:39:45.144Z,15.00
2023-03-24T10:42:21.761Z,15.00
2023-03-24T10:44:51.180Z,15.10
2023-03-24T10:47:27.231Z,15.10
2023-03-24T10:50:00.933Z,15.20
2023-03-24T10:52:45.507Z,15.20
2023-03-24T10:55:23.562Z,15.20
2023-03-24T10:57:55.660Z,15.20
2023-03-24T11:00:34.593Z,15.30
2023-03-24T11:03:07.009Z,15.20
2023-03-24T11:05:38.538Z,15.30
2023-03-24T11:08:28.492Z,15.30
2023-03-24T11:10:56.061Z,15.30
2023-03-24T11:13:46.299Z,15.30
2023-03-24T11:16:17.410Z,15.40
2023-03-24T11:18:58.990Z,15.40
2023-03-24T11:21:32.153Z,15.40
2023-03-24T11:24:01.866Z,15.50
2023-03-24T11:26:35.594Z,15.50
2023-03-24T11:29:12.863Z,15.50
2023-03-24T11:31:41.184Z,15.50
2023-03-24T11:34:24.129Z,15.60
2023-03-24T11:36:57.571Z,15.70
2023-03-24T11:39:34.166Z,15.70
2023-03-24T11:42:10.551Z,15.70
2023-03-24T11:44:37.957Z,15.80
2023-03-24T11:47:18.312Z,15.80
2023-03-24T11:49:55.854Z,15.90
2023-03-24T11:52:34.676Z,16.00
2023-03-24T11:55:23.182Z,16.00
2023-03-24T11:58:27.945Z,16.10
2023-03-24T12:01:05.276Z,16.20
2023-03-24T12:03:51.360Z,16.20
2023-03-24T12:06:45.497Z,16.30
2023-03-24T12:09:33.385Z,16.40
2023-03-24T12:12:21.378Z,16.40
2023-03-24T12:14:54.864Z,16.50
2023-03-24T12:17:26.033Z,16.50
2023-03-24T12:20:15.924Z,16.50
2023-03-24T12:23:08.057Z,16.50
2023-03-24T12:26:29.794Z,16.50
2023-03-24T12:28:57.080Z,16.50
2023-03-24T12:31:56.287Z,16.50
2023-03-24T12:34:42.471Z,16.50
2023-03-24T12:37:33.788Z,16.60
2023-03-24T12:40:22.937Z,16.60
2023-03-24T12:43:14.595Z,16.70
2023-03-24T12:45:49.721Z,16.70
2023-03-24T12:48:32.192Z,16.80
2023-03-24T12:51:16.358Z,16.90
2023-03-24T12:54:07.680Z,16.90
2023-03-24T12:57:07.712Z,17.00
2023-03-24T12:59:41.052Z,17.00
2023-03-24T13:02:30.452Z,17.10
2023-03-24T13:05:05.851Z,17.20
2023-03-24T13:07:39.198Z,17.20
2023-03-24T13:10:22.906Z,17.30
2023-03-24T13:13:17.068Z,17.30
2023-03-24T13:16:00.040Z,17.30
2023-03-24T13:18:39.748Z,17.40
2023-03-24T13:21:17.474Z,17.40
2023-03-24T13:24:09.532Z,17.50
2023-03-24T13:26:58.950Z,17.50
2023-03-24T13:30:07.382Z,17.60
2023-03-24T13:32:48.369Z,17.60
2023-03-24T13:35:21.036Z,17.70
2023-03-24T13:38:00.551Z,18.00
2023-03-24T13:40:32.353Z,18.40
2023-03-24T13:43:07.544Z,18.80
2023-03-24T13:45:44.121Z,19.00
2023-03-24T13:48:14.615Z,19.00
2023-03-24T13:51:21.990Z,18.90
2023-03-24T13:53:53.963Z,18.80
2023-03-24T13:56:37.082Z,18.80
2023-03-24T13:59:13.466Z,18.80
2023-03-24T14:01:49.515Z,18.70
2023-03-24T14:04:19.938Z,18.60
2023-03-24T14:07:01.659Z,18.50
2023-03-24T14:09:31.147Z,18.30
2023-03-24T14:12:04.361Z,18.10
2023-03-24T14:14:36.246Z,18.10
2023-03-24T14:17:13.297Z,18.00
2023-03-24T14:19:45.420Z,18.00
2023-03-24T14:22:22.895Z,18.10
2023-03-24T14:25:06.897Z,18.30
2023-03-24T14:27:36.209Z,18.30
2023-03-24T14:30:16.355Z,18.20
2023-03-24T14:32:58.995Z,18.10
2023-03-24T14:35:37.211Z,18.00
2023-03-24T14:38:26.196Z,17.80
2023-03-24T14:40:59.948Z,17.70
2023-03-24T14:43:54.554Z,17.60
2023-03-24T14:46:44.867Z,17.50
2023-03-24T14:49:27.044Z,17.40
2023-03-24T14:52:16.741Z,17.30
2023-03-24T14:55:16.516Z,17.50
2023-03-24T14:57:47.140Z,17.90
2023-03-24T15:00:38.700Z,18.20
2023-03-24T15:03:28.840Z,18.40
2023-03-24T15:06:11.396Z,18.60
2023-03-24T15:08:38.878Z,18.60
2023-03-24T15:11:09.774Z,18.60
2023-03-24T15:13:54.045Z,18.70
2023-03-24T15:16:25.023Z,18.70
2023-03-24T15:19:02.689Z,18.90
2023-03-24T15:21:34.853Z,19.10
2023-03-24T15:24:21.996Z,19.40
2023-03-24T15:26:52.615Z,19.40
2023-03-24T15:29:20.033Z,19.40
2023-03-24T15:31:49.209Z,19.30
2023-03-24T15:34:34.821Z,19.20
2023-03-24T15:37:05.340Z,19.00
2023-03-24T15:39:40.878Z,18.80
2023-03-24T15:42:15.837Z,18.70
2023-03-24T15:44:43.357Z,18.60
2023-03-24T15:47:24.582Z,18.50
2023-03-24T15:50:00.263Z,18.40
2023-03-24T15:52:38.776Z,18.20
2023-03-24T15:55:27.953Z,18.10
2023-03-24T15:58:01.804Z,18.10
2023-03-24T16:00:36.676Z,17.90
2023-03-24T16:03:06.883Z,17.80
2023-03-24T16:05:34.853Z,17.80
2023-03-24T16:08:07.901Z,17.70
2023-03-24T16:10:43.277Z,17.70
2023-03-24T16:13:19.610Z,17.60
2023-03-24T16:16:00.992Z,17.50
2023-03-24T16:18:34.224Z,17.50
2023-03-24T16:21:03.587Z,17.50
2023-03-24T16:23:31.444Z,17.40
2023-03-24T16:25:58.708Z,17.30
2023-03-24T16:28:27.624Z,17.20
2023-03-24T16:31:06.357Z,17.10
2023-03-24T16:33:33.943Z,17.00
2023-03-24T16:36:01.300Z,16.90
2023-03-24T16:38:28.706Z,16.80
2023-03-24T16:40:57.575Z,16.60
2023-03-24T16:43:25.695Z,16.50
2023-03-24T16:45:53.842Z,16.40
2023-03-24T16:48:21.109Z,16.30
2023-03-24T16:50:53.338Z,16.20
2023-03-24T16:53:21.426Z,16.10
2023-03-24T16:55:48.883Z,16.00
2023-03-24T16:58:17.406Z,15.90
2023-03-24T17:00:45.955Z,15.90
2023-03-24T17:03:14.101Z,15.80
2023-03-24T17:05:48.613Z,15.80
2023-03-24T17:08:16.768Z,15.70
2023-03-24T17:10:46.262Z,15.70
2023-03-24T17:13:24.737Z,15.60
2023-03-24T17:15:52.880Z,15.50
2023-03-24T17:18:20.484Z,15.50
2023-03-24T17:20:48.471Z,15.40
2023-03-24T17:23:18.604Z,15.30
2023-03-24T17:25:45.986Z,15.20
2023-03-24T17:28:15.638Z,15.10
2023-03-24T17:30:43.376Z,15.00
2023-03-24T17:33:14.933Z,14.90
2023-03-24T17:35:45.740Z,14.80
2023-03-24T17:38:16.472Z,14.80
2023-03-24T17:40:44.763Z,14.70
2023-03-24T17:43:12.358Z,14.70
2023-03-24T17:45:41.102Z,14.60
2023-03-24T17:48:08.455Z,14.50
2023-03-24T17:50:35.976Z,14.50
2023-03-24T17:53:03.309Z,14.40
2023-03-24T17:55:30.646Z,14.40
2023-03-24T17:57:58.005Z,14.30
2023-03-24T18:00:25.761Z,14.20
2023-03-24T18:02:54.082Z,14.10
2023-03-24T18:05:22.391Z,14.10
2023-03-24T18:07:50.659Z,14.10
2023-03-24T18:10:18.661Z,14.20
2023-03-24T18:12:46.131Z,14.10
2023-03-24T18:15:13.457Z,14.10
2023-03-24T18:17:41.027Z,14.10
2023-03-24T18:20:14.657Z,14.00
2023-03-24T18:22:42.018Z,14.00
2023-03-24T18:25:11.343Z,14.00
2023-03-24T18:27:39.810Z,14.00
2023-03-24T18:30:10.022Z,14.00
2023-03-24T18:32:40.404Z,14.00
2023-03-24T18:35:09.954Z,14.00
2023-03-24T18:37:38.124Z,14.00
2023-03-24T18:40:08.467Z,14.00
2023-03-24T18:42:36.916Z,14.00
2023-03-24T18:45:08.028Z,14.00
2023-03-24T18:47:35.721Z,14.00
2023-03-24T18:50:03.353Z,14.00
2023-03-24T18:52:33.751Z,14.00
2023-03-24T18:55:02.548Z,14.00
2023-03-24T18:57:31.137Z,14.00
2023-03-24T19:00:00.303Z,14.10
2023-03-24T19:02:28.461Z,14.10
2023-03-24T19:04:56.415Z,14.10
2023-03-24T19:07:28.028Z,14.20
2023-03-24T19:09:55.579Z,14.20
2023-03-24T19:12:22.985Z,14.20
2023-03-24T19:14:52.986Z,14.20
2023-03-24T19:17:20.521Z,14.20
2023-03-24T19:19:48.067Z,14.20
2023-03-24T19:22:21.572Z,14.20
2023-03-24T19:24:49.422Z,14.20
2023-03-24T19:27:17.572Z,14.20
2023-03-24T19:29:46.872Z,14.20
2023-03-24T19:32:14.623Z,14.20
2023-03-24T19:34:41.961Z,14.20
2023-03-24T19:37:10.290Z,14.20
2023-03-24T19:39:38.037Z,14.20
2023-03-24T19:42:07.798Z,14.20
2023-03-24T19:44:35.793Z,14.20
2023-03-24T19:47:03.517Z,14.20
2023-03-24T19:49:31.312Z,14.20
2023-03-24T19:51:59.888Z,14.20
2023-03-24T19:54:27.392Z,14.20
2023-03-24T19:56:55.755Z,14.20
2023-03-24T19:59:23.294Z,14.20
2023-03-24T20:01:51.106Z,14.10
2023-03-24T20:04:18.380Z,14.10
2023-03-24T20:06:45.847Z,14.10
2023-03-24T20:09:13.446Z,14.10
2023-03-24T20:11:41.158Z,14.10
2023-03-24T20:14:08.489Z,14.10
2023-03-24T20:16:36.115Z,14.00
2023-03-24T20:19:03.509Z,14.10
2023-03-24T20:21:30.877Z,14.00
2023-03-24T20:23:58.160Z,14.00
2023-03-24T20:26:25.411Z,14.00
2023-03-24T20:28:53.437Z,14.00
2023-03-24T20:31:20.970Z,14.00
2023-03-24T20:33:48.254Z,14.00
2023-03-24T20:36:15.707Z,13.90
2023-03-24T20:38:43.049Z,13.90
2023-03-24T20:41:10.577Z,13.90
2023-03-24T20:43:38.045Z,13.90
2023-03-24T20:46:07.794Z,13.90
2023-03-24T20:48:36.016Z,13.90
2023-03-24T20:51:03.811Z,13.90
2023-03-24T20:53:35.608Z,13.90
2023-03-24T20:56:06.780Z,13.90
2023-03-24T20:58:35.350Z,13.90
2023-03-24T21:01:06.236Z,13.90
2023-03-24T21:03:34.883Z,13.80
2023-03-24T21:06:03.128Z,13.80
2023-03-24T21:08:30.561Z,13.70
2023-03-24T21:10:58.965Z,13.70
2023-03-24T21:13:36.930Z,13.70
2023-03-24T21:16:09.693Z,13.70
2023-03-24T21:18:38.119Z,13.70
2023-03-24T21:21:06.168Z,13.70
2023-03-24T21:23:34.434Z,13.70
2023-03-24T21:26:02.748Z,13.60
2023-03-24T21:28:31.017Z,13.60
2023-03-24T21:31:05.044Z,13.60
2023-03-24T21:33:32.911Z,13.60
2023-03-24T21:36:00.657Z,13.60
2023-03-24T21:38:28.262Z,13.60
2023-03-24T21:40:59.899Z,13.60
2023-03-24T21:43:29.289Z,13.50
2023-03-24T21:45:57.564Z,13.60
2023-03-24T21:48:26.690Z,13.60
2023-03-24T21:50:55.165Z,13.60
2023-03-24T21:53:28.430Z,13.60
2023-03-24T21:56:04.789Z,13.60
2023-03-24T21:58:33.427Z,13.60
2023-03-24T22:01:01.400Z,13.60
2023-03-24T22:03:28.844Z,13.60
2023-03-24T22:05:57.493Z,13.60
2023-03-24T22:08:26.826Z,13.60
2023-03-24T22:10:58.276Z,13.60
2023-03-24T22:13:31.817Z,13.60
2023-03-24T22:16:07.163Z,13.60
2023-03-24T22:18:37.361Z,13.60
2023-03-24T22:21:07.776Z,13.60
2023-03-24T22:23:39.216Z,13.60
2023-03-24T22:26:16.410Z,13.60
2023-03-24T22:28:44.523Z,13.60
2023-03-24T22:31:14.291Z,13.60
2023-03-24T22:33:41.974Z,13.60
2023-03-24T22:36:10.156Z,13.60
2023-03-24T22:38:37.475Z,13.60
2023-03-24T22:41:07.073Z,13.50
2023-03-24T22:43:37.848Z,13.50
2023-03-24T22:46:05.829Z,13.50
2023-03-24T22:48:33.293Z,13.50
2023-03-24T22:51:01.021Z,13.50
2023-03-24T22:53:28.421Z,13.50
2023-03-24T22:55:58.275Z,13.50
2023-03-24T22:58:25.719Z,13.40
2023-03-24T23:00:56.322Z,13.40
2023-03-24T23:03:23.818Z,13.50
2023-03-24T23:05:51.867Z,13.40
2023-03-24T23:08:19.748Z,13.40
2023-03-24T23:10:47.660Z,13.40
2023-03-24T23:13:16.990Z,13.40
2023-03-24T23:15:47.877Z,13.40
2023-03-24T23:18:16.284Z,13.30
2023-03-24T23:20:44.178Z,13.40
2023-03-24T23:23:11.990Z,13.30
2023-03-24T23:25:44.589Z,13.30
2023-03-24T23:28:12.841Z,13.30
2023-03-24T23:30:41.265Z,13.30
2023-03-24T23:33:09.277Z,13.30
2023-03-24T23:35:37.314Z,13.30
2023-03-24T23:38:06.663Z,13.30
2023-03-24T23:40:34.170Z,13.20
2023-03-24T23:43:02.300Z,13.20
2023-03-24T23:45:29.846Z,13.20
2023-03-24T23:47:57.273Z,13.20
2023-03-24T23:50:26.098Z,13.20
2023-03-24T23:52:53.453Z,13.30
2023-03-24T23:55:20.964Z,13.20
2023-03-24T23:57:49.165Z,13.20
